Elk Creek, Virginia
Current Conditions -  °F | °C
As of 10:55 PM on Saturday 25 Oct 2014 (Local Time) from KMKJ Reporting Station
Clear Clear  
Wind Chill: 55°   Ceiling: Unl
Heat Index: 55°   Visibility: 10mi
Dew Point: 47°   Wind: 14mph
Humidity: 76%   Direction: 260°W
Pressure: 30"   Gusts: NA
Location:  36.72°N, 81.18°W
Report Text: KMKJ 260255Z AUTO 26012KT 10SM CLR 13/09 A3000 RMK AO2 T01260085
Loading
Personal Weather Stations






























Interactive Weather Map
Tropical Storm Tracking
New forecast layout! Learn more

10-Day Weather Forecast

Advertisements
Track Severe Weather on mobile